Time;durP1;ratioP1;P1;durP2;ratioP2;P2;SDS_P1;SDS_P2;PMS_P1;PMS_P2;Temp;Humidity;BMP_temperature;BMP_pressure;BME280_temperature;BME280_humidity;BME280_pressure;Samples;Min_cycle;Max_cycle;Signal;HPM_P1;HPM_P2
2022/07/13 00:00:18;;;;;;;;;;;;;;;27.94;47.78;99140.06;2098012;28;19971;-68
2022/07/13 00:01:20;;;;;;;;;;;;;;;27.90;48.12;99143.56;2094484;28;19931;-68
2022/07/13 00:02:21;;;;;;;;;;;;;;;27.93;47.88;99143.88;2098735;28;19932;-68
2022/07/13 00:03:23;;;;;;;;;;;;;;;27.90;48.12;99144.38;2097366;28;20773;-68
2022/07/13 00:04:24;;;;;;;;;;;;;;;27.88;47.96;99145.72;2099121;28;19936;-69
2022/07/13 00:05:25;;;;;;;;;;;;;;;27.90;48.38;99140.84;2099935;28;19931;-68
2022/07/13 00:06:26;;;;;;;;;;;;;;;27.89;48.40;99141.91;2098544;28;19928;-69
2022/07/13 00:07:28;;;;;;;;;;;;;;;27.94;49.04;99141.97;2099436;28;19932;-68
2022/07/13 00:08:28;;;;;;;;;;;;;;;27.93;48.23;99140.31;2099481;28;19927;-68
2022/07/13 00:09:30;;;;;;;;;;;;;;;27.97;48.34;99141.44;2100434;28;19942;-68
2022/07/13 00:10:30;;;;;;;;;;;;;;;27.98;48.39;99148.56;2099032;28;19932;-68
2022/07/13 00:11:32;;;;;;;;;;;;;;;27.97;48.62;99141.44;2096528;28;19975;-68
2022/07/13 00:12:32;;;;;;;;;;;;;;;27.91;47.97;99147.94;2101005;28;20669;-68
2022/07/13 00:13:34;;;;;;;;;;;;;;;27.88;47.90;99146.53;2101622;28;19935;-68
2022/07/13 00:14:34;;;;;;;;;;;;;;;27.82;47.41;99155.72;2099685;28;19962;-68
2022/07/13 00:15:36;;;;;;;;;;;;;;;27.83;47.54;99152.75;2098208;28;19927;-68
2022/07/13 00:16:37;;;;;;;;;;;;;;;27.81;47.39;99154.09;2098204;28;19946;-67
2022/07/13 00:17:38;;;;;;;;;;;;;;;27.85;47.06;99152.47;2095465;28;19932;-68
2022/07/13 00:18:40;;;;;;;;;;;;;;;27.84;46.99;99157.13;2098311;28;19927;-67
2022/07/13 00:19:42;;;;;;;;;;;;;;;27.77;47.19;99153.72;2099913;28;19928;-68
2022/07/13 00:20:43;;;;;;;;;;;;;;;27.72;47.54;99156.38;2098935;28;19927;-70
2022/07/13 00:21:45;;;;;;;;;;;;;;;27.74;47.49;99164.28;2100196;28;20337;-69
2022/07/13 00:22:45;;;;;;;;;;;;;;;27.81;47.10;99159.53;2095225;28;20300;-68
2022/07/13 00:23:47;;;;;;;;;;;;;;;27.82;47.05;99156.53;2099061;28;20058;-68
2022/07/13 00:24:48;;;;;;;;;;;;;;;27.85;47.43;99160.66;2100611;28;20732;-68
2022/07/13 00:25:49;;;;;;;;;;;;;;;27.82;47.30;99162.00;2095454;28;19932;-68
2022/07/13 00:26:50;;;;;;;;;;;;;;;27.78;47.29;99160.00;2099488;28;19928;-68
2022/07/13 00:27:51;;;;;;;;;;;;;;;27.69;47.81;99165.03;2098586;28;19928;-68
2022/07/13 00:28:52;;;;;;;;;;;;;;;27.64;47.52;99159.53;2095826;28;19931;-69
2022/07/13 00:29:54;;;;;;;;;;;;;;;27.61;47.75;99160.84;2101657;28;19928;-68
2022/07/13 00:30:54;;;;;;;;;;;;;;;27.64;47.91;99159.53;2099528;28;19934;-68
2022/07/13 00:31:56;;;;;;;;;;;;;;;27.66;47.73;99160.09;2099808;28;20311;-68
2022/07/13 00:32:56;;;;;;;;;;;;;;;27.66;48.16;99160.09;2096714;28;19948;-68
2022/07/13 00:33:59;;;;;;;;;;;;;;;27.68;47.69;99157.13;2096226;28;20489;-69
2022/07/13 00:35:00;;;;;;;;;;;;;;;27.68;48.02;99160.66;2105634;28;19932;-68
2022/07/13 00:36:01;;;;;;;;;;;;;;;27.67;48.04;99150.84;2104717;28;19929;-68
2022/07/13 00:37:02;;;;;;;;;;;;;;;27.68;48.21;99155.22;2104545;28;19924;-67
2022/07/13 00:38:03;;;;;;;;;;;;;;;27.68;48.13;99149.78;2101424;28;19934;-68
2022/07/13 00:39:04;;;;;;;;;;;;;;;27.68;47.65;99154.41;2101585;28;20398;-68
2022/07/13 00:40:06;;;;;;;;;;;;;;;27.70;48.04;99149.53;2101029;28;19932;-68
2022/07/13 00:41:07;;;;;;;;;;;;;;;27.67;48.25;99155.50;2096327;28;20411;-68
2022/07/13 00:42:08;;;;;;;;;;;;;;;27.64;48.19;99151.38;2098860;28;19927;-68
2022/07/13 00:43:09;;;;;;;;;;;;;;;27.67;48.40;99150.03;2099382;28;20038;-71
2022/07/13 00:44:10;;;;;;;;;;;;;;;27.64;48.42;99154.09;2102124;28;19957;-72
2022/07/13 00:45:11;;;;;;;;;;;;;;;27.68;48.23;99154.41;2103794;28;20502;-70
2022/07/13 00:46:13;;;;;;;;;;;;;;;27.71;48.63;99154.72;2100709;28;20286;-72
2022/07/13 00:47:14;;;;;;;;;;;;;;;27.68;48.47;99149.78;2102726;28;19988;-71
2022/07/13 00:48:16;;;;;;;;;;;;;;;27.72;48.04;99150.09;2100347;28;19985;-72
2022/07/13 00:49:18;;;;;;;;;;;;;;;27.79;48.31;99153.47;2100134;28;20015;-72
2022/07/13 00:50:20;;;;;;;;;;;;;;;27.81;48.58;99144.00;2101895;28;20495;-71
2022/07/13 00:51:21;;;;;;;;;;;;;;;27.83;48.35;99147.31;2098048;28;19930;-68
2022/07/13 00:52:22;;;;;;;;;;;;;;;27.84;48.44;99148.94;2104635;28;19928;-68
2022/07/13 00:53:23;;;;;;;;;;;;;;;27.87;48.13;99152.25;2102811;28;19939;-68
2022/07/13 00:54:28;;;;;;;;;;;;;;;27.90;48.05;99154.47;2105288;28;20334;-68
2022/07/13 00:55:29;;;;;;;;;;;;;;;27.90;48.33;99151.75;2103049;28;19928;-68
2022/07/13 00:56:30;;;;;;;;;;;;;;;27.91;48.34;99151.47;2104602;28;20038;-68
2022/07/13 00:57:32;;;;;;;;;;;;;;;27.92;48.28;99155.03;2104448;28;20328;-68
2022/07/13 00:58:34;;;;;;;;;;;;;;;27.90;48.57;99149.84;2102539;28;20595;-68
2022/07/13 00:59:35;;;;;;;;;;;;;;;27.90;48.57;99158.00;2100704;28;19935;-68
2022/07/13 01:00:37;;;;;;;;;;;;;;;27.89;48.83;99156.38;2104231;28;20376;-68
2022/07/13 01:01:38;;;;;;;;;;;;;;;27.88;49.13;99159.34;2104483;28;21181;-68
2022/07/13 01:02:40;;;;;;;;;;;;;;;27.84;48.95;99159.84;2104205;28;20690;-67
2022/07/13 01:03:41;;;;;;;;;;;;;;;27.82;49.10;99162.00;2099193;28;20102;-68
2022/07/13 01:04:44;;;;;;;;;;;;;;;27.81;49.08;99163.06;2100991;28;20165;-67
2022/07/13 01:05:44;;;;;;;;;;;;;;;27.81;48.76;99159.53;2102991;28;19935;-68
2022/07/13 01:06:46;;;;;;;;;;;;;;;27.81;48.97;99160.34;2098505;28;19928;-67
2022/07/13 01:07:47;;;;;;;;;;;;;;;27.82;48.69;99161.16;2099751;28;20338;-68
2022/07/13 01:08:49;;;;;;;;;;;;;;;27.83;48.87;99160.94;2103233;28;20308;-68
2022/07/13 01:09:49;;;;;;;;;;;;;;;27.84;48.83;99161.75;2100642;28;19932;-67
2022/07/13 01:10:51;;;;;;;;;;;;;;;27.81;48.88;99163.06;2098345;28;19932;-67
2022/07/13 01:11:52;;;;;;;;;;;;;;;27.78;49.09;99155.38;2098016;28;19935;-67
2022/07/13 01:12:53;;;;;;;;;;;;;;;27.79;49.19;99158.91;2095912;28;19939;-67
2022/07/13 01:13:55;;;;;;;;;;;;;;;27.77;49.07;99161.88;2097983;28;19928;-67
2022/07/13 01:14:57;;;;;;;;;;;;;;;27.79;48.70;99159.78;2100232;28;19927;-68
2022/07/13 01:15:58;;;;;;;;;;;;;;;27.81;49.05;99171.25;2095721;28;19969;-68
2022/07/13 01:17:00;;;;;;;;;;;;;;;27.81;48.54;99159.53;2100200;28;20388;-67
2022/07/13 01:18:01;;;;;;;;;;;;;;;27.83;48.91;99160.09;2096263;28;19980;-68
2022/07/13 01:19:04;;;;;;;;;;;;;;;27.85;49.08;99166.13;2096036;28;20028;-67
2022/07/13 01:20:07;;;;;;;;;;;;;;;27.84;49.10;99168.03;2100671;28;19932;-67
2022/07/13 01:21:09;;;;;;;;;;;;;;;27.84;49.02;99164.47;2101745;28;20060;-68
2022/07/13 01:22:15;;;;;;;;;;;;;;;27.81;48.81;99164.97;2094255;28;19932;-67
2022/07/13 01:23:17;;;;;;;;;;;;;;;27.82;48.93;99167.44;2097476;28;19939;-69
2022/07/13 01:24:19;;;;;;;;;;;;;;;27.83;48.64;99168.25;2092485;28;20396;-70
2022/07/13 01:25:19;;;;;;;;;;;;;;;27.80;48.68;99168.75;2101627;28;20012;-69
2022/07/13 01:26:21;;;;;;;;;;;;;;;27.79;48.75;99170.66;2102920;28;19965;-69
2022/07/13 01:27:22;;;;;;;;;;;;;;;27.79;48.45;99172.53;2100341;28;19942;-67
2022/07/13 01:28:24;;;;;;;;;;;;;;;27.78;48.72;99166.28;2099585;28;19930;-67
2022/07/13 01:29:24;;;;;;;;;;;;;;;27.76;48.70;99168.41;2101906;28;19927;-67
2022/07/13 01:30:26;;;;;;;;;;;;;;;27.74;48.53;99164.28;2106451;28;20413;-71
2022/07/13 01:31:32;;;;;;;;;;;;;;;27.72;48.32;99161.84;2098748;28;19947;-70
2022/07/13 01:32:42;;;;;;;;;;;;;;;27.74;48.43;99167.84;2101304;27;19992;-69
2022/07/13 01:33:43;;;;;;;;;;;;;;;27.75;48.01;99166.78;2095411;28;19931;-70
2022/07/13 01:34:45;;;;;;;;;;;;;;;27.72;48.16;99164.56;2102151;28;19924;-69
2022/07/13 01:35:45;;;;;;;;;;;;;;;27.70;48.09;99171.34;2102041;28;20398;-67
2022/07/13 01:36:47;;;;;;;;;;;;;;;27.66;48.50;99165.53;2103627;28;20260;-70
2022/07/13 01:37:48;;;;;;;;;;;;;;;27.68;48.06;99166.13;2107068;28;20431;-69
2022/07/13 01:38:51;;;;;;;;;;;;;;;27.68;48.15;99162.56;2103349;28;19959;-70
2022/07/13 01:39:51;;;;;;;;;;;;;;;27.68;47.93;99163.41;2097641;28;19935;-69
2022/07/13 01:40:53;;;;;;;;;;;;;;;27.69;47.93;99161.50;2089927;28;19931;-69
2022/07/13 01:41:53;;;;;;;;;;;;;;;27.69;47.84;99158.75;2098345;28;19924;-70
2022/07/13 01:42:55;;;;;;;;;;;;;;;27.70;47.96;99163.97;2101494;28;19934;-70
2022/07/13 01:43:57;;;;;;;;;;;;;;;27.71;48.03;99160.16;2097165;28;19936;-67
2022/07/13 01:44:59;;;;;;;;;;;;;;;27.71;48.26;99162.91;2101049;28;20288;-70
2022/07/13 01:46:00;;;;;;;;;;;;;;;27.67;48.21;99159.03;2102994;28;19950;-69
2022/07/13 01:47:07;;;;;;;;;;;;;;;27.69;48.08;99159.59;2092810;28;20522;-69
2022/07/13 01:48:08;;;;;;;;;;;;;;;27.69;48.23;99164.22;2099988;28;20053;-67
2022/07/13 01:49:10;;;;;;;;;;;;;;;27.70;48.60;99149.53;2087527;28;20457;-70
2022/07/13 01:50:11;;;;;;;;;;;;;;;27.70;48.47;99158.53;2093191;28;19942;-70
2022/07/13 01:51:13;;;;;;;;;;;;;;;27.68;48.63;99162.56;2097051;28;20378;-67
2022/07/13 01:52:13;;;;;;;;;;;;;;;27.67;48.46;99164.47;2098981;28;19931;-69
2022/07/13 01:53:15;;;;;;;;;;;;;;;27.68;48.38;99162.56;2099841;28;20083;-66
2022/07/13 01:54:17;;;;;;;;;;;;;;;27.66;48.36;99164.72;2098261;28;20121;-67
2022/07/13 01:55:19;;;;;;;;;;;;;;;27.66;48.51;99167.44;2093160;28;19939;-69
2022/07/13 01:56:20;;;;;;;;;;;;;;;27.67;48.19;99167.22;2099988;28;19988;-69
2022/07/13 01:57:21;;;;;;;;;;;;;;;27.64;48.60;99159.53;2102014;28;20400;-70
2022/07/13 01:58:22;;;;;;;;;;;;;;;27.67;48.29;99158.22;2099256;28;19976;-69
2022/07/13 01:59:23;;;;;;;;;;;;;;;27.67;48.10;99167.22;2101932;28;20357;-69
2022/07/13 02:00:24;;;;;;;;;;;;;;;27.65;48.18;99165.81;2101947;28;19928;-66
2022/07/13 02:01:25;;;;;;;;;;;;;;;27.63;48.41;99166.03;2095281;28;19934;-67
2022/07/13 02:02:26;;;;;;;;;;;;;;;27.68;48.04;99166.13;2098153;28;20977;-70
2022/07/13 02:03:29;;;;;;;;;;;;;;;27.66;48.12;99164.72;2101748;27;20003;-66
2022/07/13 02:04:29;;;;;;;;;;;;;;;27.67;48.04;99172.66;2102754;28;19935;-70
2022/07/13 02:05:31;;;;;;;;;;;;;;;27.67;48.29;99169.94;2101600;28;19998;-69
2022/07/13 02:06:32;;;;;;;;;;;;;;;27.62;48.17;99167.13;2095970;27;19939;-66
2022/07/13 02:07:33;;;;;;;;;;;;;;;27.64;48.23;99173.16;2104569;28;19932;-70
2022/07/13 02:08:34;;;;;;;;;;;;;;;27.61;48.18;99165.50;2105694;28;19931;-66
2022/07/13 02:09:37;;;;;;;;;;;;;;;27.58;47.90;99172.25;2104252;28;20272;-69
2022/07/13 02:10:38;;;;;;;;;;;;;;;27.61;47.96;99170.94;2104951;28;19928;-67
2022/07/13 02:11:39;;;;;;;;;;;;;;;27.65;48.12;99171.25;2101575;28;20172;-69
2022/07/13 02:12:40;;;;;;;;;;;;;;;27.66;48.12;99170.16;2102444;28;20297;-67
2022/07/13 02:13:43;;;;;;;;;;;;;;;27.64;48.07;99167.72;2099852;28;19989;-68
2022/07/13 02:14:44;;;;;;;;;;;;;;;27.63;47.52;99168.75;2099840;28;19954;-68
2022/07/13 02:15:45;;;;;;;;;;;;;;;27.63;47.94;99174.22;2099587;28;19939;-68
2022/07/13 02:16:46;;;;;;;;;;;;;;;27.60;47.36;99163.81;2103989;28;20660;-68
2022/07/13 02:17:47;;;;;;;;;;;;;;;27.56;47.18;99168.13;2103239;28;19928;-68
2022/07/13 02:18:48;;;;;;;;;;;;;;;27.55;47.53;99169.19;2104328;28;19931;-68
2022/07/13 02:19:49;;;;;;;;;;;;;;;27.55;47.52;99166.47;2099319;28;20029;-68
2022/07/13 02:20:50;;;;;;;;;;;;;;;27.56;47.04;99159.97;2104322;28;20313;-68
2022/07/13 02:21:51;;;;;;;;;;;;;;;27.58;46.80;99166.81;2097289;28;19981;-68
2022/07/13 02:22:52;;;;;;;;;;;;;;;27.59;46.93;99159.47;2101664;28;19988;-68
2022/07/13 02:23:54;;;;;;;;;;;;;;;27.57;46.78;99162.41;2099774;28;20393;-68
2022/07/13 02:24:58;;;;;;;;;;;;;;;27.56;46.20;99165.41;2103361;28;20042;-68
2022/07/13 02:26:00;;;;;;;;;;;;;;;27.56;46.38;99163.50;2101136;28;20023;-68
2022/07/13 02:27:01;;;;;;;;;;;;;;;27.57;46.49;99159.69;2103010;28;19931;-68
2022/07/13 02:28:02;;;;;;;;;;;;;;;27.52;46.16;99166.97;2102842;28;19931;-67
2022/07/13 02:29:05;;;;;;;;;;;;;;;27.52;45.31;99175.13;2096822;28;19966;-69
2022/07/13 02:30:06;;;;;;;;;;;;;;;27.51;45.72;99163.44;2098274;28;19939;-68
2022/07/13 02:31:07;;;;;;;;;;;;;;;27.45;45.91;99164.44;2099488;27;20186;-68
2022/07/13 02:32:08;;;;;;;;;;;;;;;27.47;45.40;99159.56;2093395;28;20415;-68
2022/07/13 02:33:10;;;;;;;;;;;;;;;27.48;45.56;99165.84;2099270;28;19927;-68
2022/07/13 02:34:11;;;;;;;;;;;;;;;27.45;45.91;99166.34;2099452;28;19928;-68
2022/07/13 02:35:13;;;;;;;;;;;;;;;27.45;45.77;99167.16;2102762;28;20039;-68
2022/07/13 02:36:13;;;;;;;;;;;;;;;27.47;45.60;99164.16;2103627;28;20999;-67
2022/07/13 02:37:15;;;;;;;;;;;;;;;27.47;45.56;99166.88;2092385;28;20005;-68
2022/07/13 02:38:17;;;;;;;;;;;;;;;27.46;45.76;99157.06;2099848;28;20709;-68
2022/07/13 02:39:17;;;;;;;;;;;;;;;27.48;45.79;99160.38;2100069;28;19932;-68
2022/07/13 02:40:21;;;;;;;;;;;;;;;27.49;45.92;99167.47;2097778;28;19979;-67
2022/07/13 02:41:21;;;;;;;;;;;;;;;27.46;45.73;99157.91;2096826;28;20176;-68
2022/07/13 02:42:23;;;;;;;;;;;;;;;27.48;45.46;99165.84;2100394;28;20683;-68
2022/07/13 02:43:25;;;;;;;;;;;;;;;27.46;45.90;99157.06;2102916;28;20082;-68
2022/07/13 02:44:25;;;;;;;;;;;;;;;27.42;45.36;99158.66;2097991;28;19936;-67
2022/07/13 02:45:27;;;;;;;;;;;;;;;27.42;45.79;99161.38;2099229;28;19932;-67
2022/07/13 02:46:28;;;;;;;;;;;;;;;27.42;45.57;99161.38;2102253;28;20839;-68
2022/07/13 02:47:29;;;;;;;;;;;;;;;27.43;46.01;99165.75;2096760;28;19941;-68
2022/07/13 02:48:30;;;;;;;;;;;;;;;27.39;46.01;99157.25;2098154;28;19927;-68
2022/07/13 02:49:32;;;;;;;;;;;;;;;27.35;46.05;99159.63;2096703;28;21002;-68
2022/07/13 02:50:32;;;;;;;;;;;;;;;27.36;45.71;99152.31;2098868;28;20407;-68
2022/07/13 02:51:34;;;;;;;;;;;;;;;27.34;45.96;99154.44;2101557;28;20046;-67
2022/07/13 02:52:35;;;;;;;;;;;;;;;27.30;46.06;99165.03;2099936;28;20300;-69
2022/07/13 02:53:36;;;;;;;;;;;;;;;27.30;45.69;99165.03;2099989;28;19928;-68
2022/07/13 02:54:37;;;;;;;;;;;;;;;27.33;45.87;99161.81;2094887;28;20944;-68
2022/07/13 02:55:40;;;;;;;;;;;;;;;27.35;45.77;99159.63;2096836;28;19927;-68
2022/07/13 02:56:41;;;;;;;;;;;;;;;27.36;45.65;99158.56;2104601;28;20495;-68
2022/07/13 02:57:42;;;;;;;;;;;;;;;27.36;45.96;99152.31;2100246;28;20006;-67
2022/07/13 02:58:43;;;;;;;;;;;;;;;27.37;45.72;99154.78;2100252;28;20084;-68
2022/07/13 02:59:44;;;;;;;;;;;;;;;27.37;45.57;99160.22;2098430;28;20046;-69
2022/07/13 03:00:46;;;;;;;;;;;;;;;27.31;44.90;99157.69;2104508;28;19934;-68
2022/07/13 03:01:47;;;;;;;;;;;;;;;27.27;45.00;99154.59;2100412;28;20042;-69
2022/07/13 03:02:48;;;;;;;;;;;;;;;27.28;44.63;99160.91;2106091;28;20266;-68
2022/07/13 03:03:49;;;;;;;;;;;;;;;27.24;44.86;99154.28;2101796;28;19939;-69
2022/07/13 03:04:50;;;;;;;;;;;;;;;27.25;44.63;99148.59;2100648;28;20607;-68
2022/07/13 03:05:52;;;;;;;;;;;;;;;27.27;44.91;99154.59;2100376;28;20039;-68
2022/07/13 03:06:52;;;;;;;;;;;;;;;27.26;45.02;99155.69;2105654;28;19932;-67
2022/07/13 03:07:54;;;;;;;;;;;;;;;27.29;44.80;99152.47;2106437;28;19928;-68
2022/07/13 03:08:54;;;;;;;;;;;;;;;27.31;45.07;99157.69;2105356;28;19935;-68
2022/07/13 03:09:57;;;;;;;;;;;;;;;27.29;45.74;99157.09;2107767;28;19924;-68
2022/07/13 03:10:59;;;;;;;;;;;;;;;27.30;45.25;99151.41;2097918;28;20295;-69
2022/07/13 03:12:00;;;;;;;;;;;;;;;27.30;45.58;99156.84;2100430;28;20008;-68
2022/07/13 03:13:01;;;;;;;;;;;;;;;27.35;45.07;99159.63;2101027;28;19928;-68
2022/07/13 03:14:03;;;;;;;;;;;;;;;27.34;45.42;99155.28;2098801;28;20031;-68
2022/07/13 03:15:04;;;;;;;;;;;;;;;27.34;45.33;99155.28;2102191;28;19927;-68
2022/07/13 03:16:06;;;;;;;;;;;;;;;27.36;44.95;99153.13;2101095;28;19938;-67
2022/07/13 03:17:06;;;;;;;;;;;;;;;27.38;44.95;99159.13;2102797;28;19959;-69
2022/07/13 03:18:08;;;;;;;;;;;;;;;27.36;44.92;99158.56;2095785;28;19931;-67
2022/07/13 03:19:09;;;;;;;;;;;;;;;27.38;44.92;99158.31;2096325;27;20150;-71
2022/07/13 03:20:11;;;;;;;;;;;;;;;27.38;44.51;99155.59;2102634;28;19954;-71
2022/07/13 03:21:12;;;;;;;;;;;;;;;27.36;44.64;99161.31;2101106;28;19931;-72
2022/07/13 03:22:13;;;;;;;;;;;;;;;27.35;45.05;99156.91;2102499;28;19988;-72
2022/07/13 03:23:14;;;;;;;;;;;;;;;27.35;45.10;99154.19;2100731;28;20458;-72
2022/07/13 03:24:16;;;;;;;;;;;;;;;27.35;44.88;99156.09;2100059;28;20018;-73
2022/07/13 03:25:16;;;;;;;;;;;;;;;27.37;44.84;99153.94;2099302;27;20725;-72
2022/07/13 03:26:19;;;;;;;;;;;;;;;27.36;45.27;99163.22;2097072;28;19932;-71
2022/07/13 03:27:20;;;;;;;;;;;;;;;27.38;44.87;99161.84;2100377;28;19935;-71
2022/07/13 03:28:21;;;;;;;;;;;;;;;27.36;44.71;99161.31;2104133;28;20038;-71
2022/07/13 03:29:22;;;;;;;;;;;;;;;27.33;44.52;99164.53;2105010;28;19935;-71
2022/07/13 03:30:23;;;;;;;;;;;;;;;27.35;44.70;99165.09;2098713;28;19934;-72
2022/07/13 03:31:26;;;;;;;;;;;;;;;27.35;44.53;99161.53;2099871;28;19931;-70
2022/07/13 03:32:27;;;;;;;;;;;;;;;27.33;44.82;99166.41;2100959;28;20139;-70
2022/07/13 03:33:28;;;;;;;;;;;;;;;27.36;45.03;99169.47;2098503;28;19932;-72
2022/07/13 03:34:30;;;;;;;;;;;;;;;27.37;44.43;99162.13;2098736;28;19927;-70
2022/07/13 03:35:30;;;;;;;;;;;;;;;27.35;44.57;99166.97;2097331;28;19981;-72
2022/07/13 03:36:32;;;;;;;;;;;;;;;27.34;44.73;99166.16;2102704;28;20876;-71
2022/07/13 03:37:32;;;;;;;;;;;;;;;27.35;44.51;99162.34;2104929;28;19938;-71
2022/07/13 03:38:34;;;;;;;;;;;;;;;27.34;44.87;99166.16;2106239;28;19930;-72
2022/07/13 03:39:35;;;;;;;;;;;;;;;27.34;44.57;99170.78;2104498;28;19935;-71
2022/07/13 03:40:36;;;;;;;;;;;;;;;27.34;44.62;99168.06;2104865;28;19927;-71
2022/07/13 03:41:38;;;;;;;;;;;;;;;27.36;44.86;99174.09;2103683;28;19950;-71
2022/07/13 03:42:40;;;;;;;;;;;;;;;27.35;44.60;99169.72;2100662;28;20372;-71
2022/07/13 03:43:40;;;;;;;;;;;;;;;27.34;44.57;99176.25;2098735;28;20371;-71
2022/07/13 03:44:42;;;;;;;;;;;;;;;27.34;44.39;99174.34;2096411;28;21416;-71
2022/07/13 03:45:42;;;;;;;;;;;;;;;27.37;44.87;99175.75;2103745;28;19934;-70
2022/07/13 03:46:44;;;;;;;;;;;;;;;27.36;44.74;99185.00;2100450;28;20479;-71
2022/07/13 03:47:44;;;;;;;;;;;;;;;27.37;44.66;99176.56;2103483;28;19943;-71
2022/07/13 03:48:46;;;;;;;;;;;;;;;27.35;44.63;99178.69;2105270;28;20377;-71
2022/07/13 03:49:46;;;;;;;;;;;;;;;27.36;44.37;99180.38;2105525;27;19927;-72
2022/07/13 03:50:48;;;;;;;;;;;;;;;27.38;44.52;99174.66;2102631;27;19928;-72
2022/07/13 03:51:49;;;;;;;;;;;;;;;27.36;44.70;99176.81;2104674;28;20030;-71
2022/07/13 03:52:50;;;;;;;;;;;;;;;27.33;44.61;99177.28;2102221;28;20027;-74
2022/07/13 03:53:51;;;;;;;;;;;;;;;27.31;44.70;99188.44;2103138;28;20475;-72
2022/07/13 03:54:52;;;;;;;;;;;;;;;27.33;44.69;99180.03;2106142;28;19958;-72
2022/07/13 03:55:53;;;;;;;;;;;;;;;27.34;44.40;99182.50;2105187;27;19938;-71
2022/07/13 03:56:56;;;;;;;;;;;;;;;27.35;44.32;99177.88;2105234;28;19957;-72
2022/07/13 03:57:57;;;;;;;;;;;;;;;27.35;44.66;99184.16;2102968;28;19932;-71
2022/07/13 03:58:58;;;;;;;;;;;;;;;27.33;44.42;99180.03;2097579;28;19928;-71
2022/07/13 04:00:00;;;;;;;;;;;;;;;27.34;44.36;99182.50;2101431;28;19935;-70
2022/07/13 04:01:01;;;;;;;;;;;;;;;27.35;44.49;99188.78;2099230;28;19934;-73
2022/07/13 04:02:02;;;;;;;;;;;;;;;27.35;44.35;99188.78;2098639;28;19969;-72
2022/07/13 04:03:03;;;;;;;;;;;;;;;27.34;44.69;99187.13;2102190;28;19938;-71
2022/07/13 04:04:05;;;;;;;;;;;;;;;27.34;44.83;99192.59;2098057;28;20373;-71
2022/07/13 04:05:06;;;;;;;;;;;;;;;27.33;44.42;99197.22;2099385;27;20462;-72
2022/07/13 04:06:08;;;;;;;;;;;;;;;27.32;44.66;99192.00;2102649;28;20105;-71
2022/07/13 04:07:09;;;;;;;;;;;;;;;27.30;44.49;99194.97;2096121;28;19928;-71
2022/07/13 04:08:10;;;;;;;;;;;;;;;27.32;44.64;99192.00;2097003;27;19938;-72
2022/07/13 04:09:12;;;;;;;;;;;;;;;27.29;44.25;99198.75;2101882;28;20357;-72
2022/07/13 04:10:12;;;;;;;;;;;;;;;27.22;44.37;99189.94;2102462;28;22732;-71
2022/07/13 04:11:14;;;;;;;;;;;;;;;27.17;44.71;99203.47;2101595;28;22377;-72
2022/07/13 04:12:21;;;;;;;;;;;;;;;27.18;44.61;99199.66;2103481;28;20606;-72
2022/07/13 04:13:22;;;;;;;;;;;;;;;26.99;44.58;99196.31;2105341;28;20566;-71
2022/07/13 04:14:23;;;;;;;;;;;;;;;27.03;44.72;99200.22;2103585;28;20400;-72
2022/07/13 04:15:24;;;;;;;;;;;;;;;27.03;45.15;99208.38;2102831;28;19934;-72
2022/07/13 04:16:25;;;;;;;;;;;;;;;27.06;44.65;99204.34;2099138;28;21348;-72
2022/07/13 04:17:26;;;;;;;;;;;;;;;26.92;44.41;99199.19;2096141;28;20037;-72
2022/07/13 04:18:27;;;;;;;;;;;;;;;26.87;45.24;99204.53;2098618;28;19928;-71
2022/07/13 04:19:28;;;;;;;;;;;;;;;26.86;45.02;99205.63;2100524;28;19945;-71
2022/07/13 04:20:29;;;;;;;;;;;;;;;26.88;45.16;99205.38;2099510;28;20393;-72
2022/07/13 04:21:30;;;;;;;;;;;;;;;26.89;45.15;99202.41;2101937;28;19928;-71
2022/07/13 04:22:31;;;;;;;;;;;;;;;26.90;45.01;99203.22;2100136;28;20684;-72
2022/07/13 04:23:33;;;;;;;;;;;;;;;26.95;45.01;99200.59;2101212;28;19934;-72
2022/07/13 04:24:33;;;;;;;;;;;;;;;26.97;44.90;99198.47;2095744;28;20033;-72
2022/07/13 04:25:35;;;;;;;;;;;;;;;27.01;44.78;99198.78;2098385;28;20365;-71
2022/07/13 04:26:35;;;;;;;;;;;;;;;27.00;44.89;99199.88;2098966;28;20421;-72
2022/07/13 04:27:38;;;;;;;;;;;;;;;26.99;45.19;99211.81;2100269;28;19944;-71
2022/07/13 04:28:39;;;;;;;;;;;;;;;26.99;44.69;99206.38;2100179;27;19996;-70
2022/07/13 04:29:40;;;;;;;;;;;;;;;27.00;44.72;99213.50;2102482;28;19928;-72
2022/07/13 04:30:41;;;;;;;;;;;;;;;27.01;44.90;99209.69;2100484;28;19924;-72
2022/07/13 04:31:43;;;;;;;;;;;;;;;27.06;45.02;99209.78;2101757;28;20487;-72
2022/07/13 04:32:43;;;;;;;;;;;;;;;27.05;45.05;99210.84;2084750;28;19934;-71
2022/07/13 04:33:45;;;;;;;;;;;;;;;27.05;45.21;99216.28;2099927;28;19934;-72
2022/07/13 04:34:45;;;;;;;;;;;;;;;27.06;44.75;99204.34;2099270;28;20434;-71
2022/07/13 04:35:47;;;;;;;;;;;;;;;27.08;45.25;99210.34;2103005;28;19931;-72
2022/07/13 04:36:47;;;;;;;;;;;;;;;27.06;45.00;99212.50;2093323;28;20557;-72
2022/07/13 04:37:49;;;;;;;;;;;;;;;27.08;44.86;99210.34;2099464;28;19934;-70
2022/07/13 04:38:50;;;;;;;;;;;;;;;27.06;44.57;99209.78;2101047;28;20453;-72
2022/07/13 04:39:51;;;;;;;;;;;;;;;27.08;44.48;99210.34;2100068;28;19924;-72
2022/07/13 04:40:52;;;;;;;;;;;;;;;27.09;44.83;99212.84;2098579;28;19927;-70
2022/07/13 04:41:53;;;;;;;;;;;;;;;27.07;44.90;99219.59;2102372;28;19932;-71
2022/07/13 04:42:56;;;;;;;;;;;;;;;27.07;45.14;99219.59;2094656;28;19941;-72
2022/07/13 04:43:57;;;;;;;;;;;;;;;27.06;44.96;99224.22;2104491;28;20138;-72
2022/07/13 04:44:58;;;;;;;;;;;;;;;27.08;44.68;99221.22;2101845;28;19955;-71
2022/07/13 04:46:00;;;;;;;;;;;;;;;27.09;44.81;99228.34;2104759;28;19924;-71
2022/07/13 04:47:02;;;;;;;;;;;;;;;27.10;44.73;99221.81;2099737;28;19971;-71
2022/07/13 04:48:06;;;;;;;;;;;;;;;27.08;44.36;99221.22;2102800;28;20030;-70
2022/07/13 04:49:07;;;;;;;;;;;;;;;27.09;44.59;99220.19;2098877;28;19932;-71
2022/07/13 04:50:09;;;;;;;;;;;;;;;27.08;44.48;99227.53;2100073;28;19927;-73
2022/07/13 04:51:09;;;;;;;;;;;;;;;27.08;44.75;99222.09;2104434;28;20604;-71
2022/07/13 04:52:11;;;;;;;;;;;;;;;27.07;45.12;99222.31;2097380;28;19938;-73
2022/07/13 04:53:12;;;;;;;;;;;;;;;27.08;44.84;99226.69;2095196;28;20022;-71
2022/07/13 04:54:13;;;;;;;;;;;;;;;27.06;44.86;99226.94;2097081;28;20832;-71
2022/07/13 04:55:14;;;;;;;;;;;;;;;27.04;44.80;99226.34;2097826;28;19932;-73
2022/07/13 04:56:15;;;;;;;;;;;;;;;27.04;44.84;99226.34;2098712;28;20358;-73
2022/07/13 04:57:16;;;;;;;;;;;;;;;27.05;45.30;99227.16;2098899;28;19928;-72
2022/07/13 04:58:19;;;;;;;;;;;;;;;27.05;45.29;99232.63;2101414;28;19924;-72
2022/07/13 04:59:20;;;;;;;;;;;;;;;27.02;45.16;99233.09;2097272;28;19973;-73
2022/07/13 05:00:22;;;;;;;;;;;;;;;27.05;45.10;99228.03;2098106;28;21421;-71
2022/07/13 05:01:22;;;;;;;;;;;;;;;27.07;45.58;99235.94;2098940;28;20639;-72
2022/07/13 05:02:24;;;;;;;;;;;;;;;27.08;45.36;99234.84;2098589;28;21241;-71
2022/07/13 05:03:24;;;;;;;;;;;;;;;27.09;45.22;99236.53;2099341;28;19927;-73
2022/07/13 05:04:26;;;;;;;;;;;;;;;27.09;45.24;99231.88;2097965;28;19932;-72
2022/07/13 05:05:31;;;;;;;;;;;;;;;27.09;45.42;99239.25;2096856;28;20190;-72
2022/07/13 05:06:32;;;;;;;;;;;;;;;27.11;45.13;99242.56;2102680;28;24744;-72
2022/07/13 05:07:33;;;;;;;;;;;;;;;27.11;45.32;99237.94;2099093;28;20269;-72
2022/07/13 05:08:34;;;;;;;;;;;;;;;27.12;45.53;99247.72;2105876;28;19927;-72
2022/07/13 05:09:35;;;;;;;;;;;;;;;27.12;45.38;99247.72;2097290;28;20559;-71
2022/07/13 05:10:36;;;;;;;;;;;;;;;27.12;45.29;99244.19;2097510;28;19939;-73
2022/07/13 05:11:39;;;;;;;;;;;;;;;27.11;45.49;99245.28;2095321;28;19939;-72
2022/07/13 05:12:41;;;;;;;;;;;;;;;27.13;45.24;99245.84;2098307;28;20507;-72
2022/07/13 05:13:43;;;;;;;;;;;;;;;27.14;45.07;99242.06;2101368;28;19931;-72
2022/07/13 05:14:45;;;;;;;;;;;;;;;27.10;45.61;99241.69;2100461;28;19928;-71
2022/07/13 05:15:46;;;;;;;;;;;;;;;27.11;45.38;99248.81;2097257;28;19976;-72
2022/07/13 05:16:48;;;;;;;;;;;;;;;27.11;45.18;99253.44;2098787;28;20339;-71
2022/07/13 05:17:50;;;;;;;;;;;;;;;27.09;45.58;99248.22;2098601;28;19943;-72
2022/07/13 05:18:50;;;;;;;;;;;;;;;27.09;44.99;99252.84;2101848;28;21535;-71
2022/07/13 05:19:52;;;;;;;;;;;;;;;27.11;45.25;99246.09;2098953;28;20975;-72